Latheron, United Kingdom
Current Conditions -  °F | °C
As of 8:20 AM on Friday 19 Dec 2014 (Local Time) from EGPC Reporting Station
Rain Showers Rain Showers  
Wind Chill: 24°   Ceiling: Unl
Heat Index: 36°   Visibility: 6mi
Dew Point: 32°   Wind: 22mph
Humidity: 87%   Direction: 270°W
Pressure: 29.26"   Gusts: NA
Location:  58.29°N, 3.35°W
Report Text: EGPC 190820Z 27019KT 9999 VCSH FEW028CB 02/M00 Q0991
Loading
Personal Weather Stations






























Interactive Weather Map New forecast layout! Learn more

10-Day Weather Forecast

Advertisements
Track Severe Weather on mobile